sensor_id;sensor_type;location;lat;lon;timestamp;pressure;altitude;pressure_sealevel;temperature;humidity
18678;BME280;9469;51.114;13.914;2023-11-21T00:01:15;98069.19;;;8.30;100.00
18678;BME280;9469;51.114;13.914;2023-11-21T00:06:24;98084.44;;;8.47;100.00
18678;BME280;9469;51.114;13.914;2023-11-21T00:11:29;98069.09;;;8.22;100.00
18678;BME280;9469;51.114;13.914;2023-11-21T00:16:34;98071.13;;;8.38;100.00
18678;BME280;9469;51.114;13.914;2023-11-21T00:21:42;98076.44;;;8.38;100.00
18678;BME280;9469;51.114;13.914;2023-11-21T00:26:48;98073.16;;;8.41;100.00
18678;BME280;9469;51.114;13.914;2023-11-21T00:31:54;98081.25;;;8.36;100.00
18678;BME280;9469;51.114;13.914;2023-11-21T00:37:03;98074.50;;;8.30;100.00
18678;BME280;9469;51.114;13.914;2023-11-21T00:42:10;98082.28;;;8.49;100.00
18678;BME280;9469;51.114;13.914;2023-11-21T00:47:15;98086.41;;;8.41;100.00
18678;BME280;9469;51.114;13.914;2023-11-21T00:52:23;98096.00;;;8.51;100.00
18678;BME280;9469;51.114;13.914;2023-11-21T00:57:32;98095.63;;;8.44;100.00
18678;BME280;9469;51.114;13.914;2023-11-21T01:02:37;98085.78;;;8.58;100.00
18678;BME280;9469;51.114;13.914;2023-11-21T01:07:48;98097.69;;;8.47;100.00
18678;BME280;9469;51.114;13.914;2023-11-21T01:12:53;98092.94;;;8.35;100.00
18678;BME280;9469;51.114;13.914;2023-11-21T01:18:00;98092.63;;;8.37;100.00
18678;BME280;9469;51.114;13.914;2023-11-21T01:23:09;98106.06;;;8.40;100.00
18678;BME280;9469;51.114;13.914;2023-11-21T01:28:16;98111.53;;;8.44;100.00
18678;BME280;9469;51.114;13.914;2023-11-21T01:33:22;98113.00;;;8.50;100.00
18678;BME280;9469;51.114;13.914;2023-11-21T01:38:30;98113.00;;;8.50;100.00
18678;BME280;9469;51.114;13.914;2023-11-21T01:43:35;98110.84;;;8.52;100.00
18678;BME280;9469;51.114;13.914;2023-11-21T01:48:40;98109.16;;;8.56;100.00
18678;BME280;9469;51.114;13.914;2023-11-21T01:53:49;98114.66;;;8.46;100.00
18678;BME280;9469;51.114;13.914;2023-11-21T01:58:55;98108.19;;;8.52;100.00
18678;BME280;9469;51.114;13.914;2023-11-21T02:04:00;98104.22;;;8.63;100.00
18678;BME280;9469;51.114;13.914;2023-11-21T02:09:08;98103.47;;;8.49;100.00
18678;BME280;9469;51.114;13.914;2023-11-21T02:14:17;98106.19;;;8.57;100.00
18678;BME280;9469;51.114;13.914;2023-11-21T02:19:24;98118.00;;;8.74;100.00
18678;BME280;9469;51.114;13.914;2023-11-21T02:24:35;98109.16;;;8.56;100.00
18678;BME280;9469;51.114;13.914;2023-11-21T02:29:42;98117.69;;;8.53;100.00
18678;BME280;9469;51.114;13.914;2023-11-21T02:34:47;98120.97;;;8.50;100.00
18678;BME280;9469;51.114;13.914;2023-11-21T02:39:55;98114.66;;;8.46;100.00
18678;BME280;9469;51.114;13.914;2023-11-21T02:45:01;98116.56;;;8.45;100.00
18678;BME280;9469;51.114;13.914;2023-11-21T02:50:08;98124.13;;;8.38;100.00
18678;BME280;9469;51.114;13.914;2023-11-21T02:55:16;98118.22;;;8.41;100.00
18678;BME280;9469;51.114;13.914;2023-11-21T03:00:22;98119.25;;;8.32;100.00
18678;BME280;9469;51.114;13.914;2023-11-21T03:05:29;98127.16;;;8.45;100.00
18678;BME280;9469;51.114;13.914;2023-11-21T03:10:38;98120.97;;;8.50;100.00
18678;BME280;9469;51.114;13.914;2023-11-21T03:15:43;98118.63;;;8.35;100.00
18678;BME280;9469;51.114;13.914;2023-11-21T03:20:48;98131.72;;;8.31;100.00
18678;BME280;9469;51.114;13.914;2023-11-21T03:25:56;98135.75;;;8.29;100.00
18678;BME280;9469;51.114;13.914;2023-11-21T03:31:01;98139.41;;;8.41;100.00
18678;BME280;9469;51.114;13.914;2023-11-21T03:36:09;98137.56;;;8.64;100.00
18678;BME280;9469;51.114;13.914;2023-11-21T03:41:17;98141.81;;;8.16;100.00
18678;BME280;9469;51.114;13.914;2023-11-21T03:46:22;98145.94;;;8.08;100.00
18678;BME280;9469;51.114;13.914;2023-11-21T03:51:27;98140.88;;;8.12;100.00
18678;BME280;9469;51.114;13.914;2023-11-21T03:56:35;98141.53;;;8.04;100.00
18678;BME280;9469;51.114;13.914;2023-11-21T04:01:40;98139.28;;;7.97;100.00
18678;BME280;9469;51.114;13.914;2023-11-21T04:06:45;98146.34;;;8.02;100.00
18678;BME280;9469;51.114;13.914;2023-11-21T04:11:54;98150.59;;;8.03;100.00
18678;BME280;9469;51.114;13.914;2023-11-21T04:17:00;98153.09;;;8.21;100.00
18678;BME280;9469;51.114;13.914;2023-11-21T04:22:07;98143.31;;;8.08;100.00
18678;BME280;9469;51.114;13.914;2023-11-21T04:27:14;98152.41;;;8.16;100.00
18678;BME280;9469;51.114;13.914;2023-11-21T04:32:20;98157.91;;;8.06;100.00
18678;BME280;9469;51.114;13.914;2023-11-21T04:37:25;98167.72;;;8.19;100.00
18678;BME280;9469;51.114;13.914;2023-11-21T04:42:34;98171.16;;;8.06;100.00
18678;BME280;9469;51.114;13.914;2023-11-21T04:47:39;98173.81;;;8.06;100.00
18678;BME280;9469;51.114;13.914;2023-11-21T04:52:47;98184.00;;;7.98;100.00
18678;BME280;9469;51.114;13.914;2023-11-21T04:57:54;98185.97;;;8.20;100.00
18678;BME280;9469;51.114;13.914;2023-11-21T05:03:00;98188.63;;;8.20;100.00
18678;BME280;9469;51.114;13.914;2023-11-21T05:08:06;98185.59;;;8.27;100.00
18678;BME280;9469;51.114;13.914;2023-11-21T05:13:13;98189.31;;;8.12;100.00
18678;BME280;9469;51.114;13.914;2023-11-21T05:18:19;98196.97;;;8.41;100.00
18678;BME280;9469;51.114;13.914;2023-11-21T05:23:25;98206.69;;;8.32;100.00
18678;BME280;9469;51.114;13.914;2023-11-21T05:28:34;98204.72;;;8.10;100.00
18678;BME280;9469;51.114;13.914;2023-11-21T05:33:40;98211.50;;;8.30;100.00
18678;BME280;9469;51.114;13.914;2023-11-21T05:38:47;98201.25;;;8.23;100.00
18678;BME280;9469;51.114;13.914;2023-11-21T05:43:57;98214.03;;;8.08;100.00
18678;BME280;9469;51.114;13.914;2023-11-21T05:49:07;98204.41;;;8.25;100.00
18678;BME280;9469;51.114;13.914;2023-11-21T05:54:13;98223.34;;;8.19;100.00
18678;BME280;9469;51.114;13.914;2023-11-21T05:59:21;98210.72;;;8.29;100.00
18678;BME280;9469;51.114;13.914;2023-11-21T06:04:27;98225.88;;;8.51;100.00
18678;BME280;9469;51.114;13.914;2023-11-21T06:09:34;98217.56;;;8.44;100.00
18678;BME280;9469;51.114;13.914;2023-11-21T06:14:42;98216.78;;;8.16;100.00
18678;BME280;9469;51.114;13.914;2023-11-21T06:19:48;98230.66;;;8.27;100.00
18678;BME280;9469;51.114;13.914;2023-11-21T06:24:55;98239.56;;;8.31;100.00
18678;BME280;9469;51.114;13.914;2023-11-21T06:30:04;98230.22;;;8.47;100.00
18678;BME280;9469;51.114;13.914;2023-11-21T06:35:11;98246.25;;;8.28;100.00
18678;BME280;9469;51.114;13.914;2023-11-21T06:40:19;98247.03;;;8.29;100.00
18678;BME280;9469;51.114;13.914;2023-11-21T06:45:29;98251.59;;;8.23;100.00
18678;BME280;9469;51.114;13.914;2023-11-21T06:50:38;98260.94;;;8.21;100.00
18678;BME280;9469;51.114;13.914;2023-11-21T06:55:43;98258.00;;;8.22;100.00
18678;BME280;9469;51.114;13.914;2023-11-21T07:00:52;98261.94;;;8.11;100.00
18678;BME280;9469;51.114;13.914;2023-11-21T07:05:57;98266.91;;;8.13;100.00
18678;BME280;9469;51.114;13.914;2023-11-21T07:11:06;98276.94;;;8.16;100.00
18678;BME280;9469;51.114;13.914;2023-11-21T07:16:13;98271.16;;;8.14;100.00
18678;BME280;9469;51.114;13.914;2023-11-21T07:21:23;98267.13;;;8.03;100.00
18678;BME280;9469;51.114;13.914;2023-11-21T07:26:29;98282.06;;;8.26;100.00
18678;BME280;9469;51.114;13.914;2023-11-21T07:31:38;98283.03;;;8.16;100.00
18678;BME280;9469;51.114;13.914;2023-11-21T07:36:43;98278.09;;;8.10;100.00
18678;BME280;9469;51.114;13.914;2023-11-21T07:41:49;98282.22;;;8.16;100.00
18678;BME280;9469;51.114;13.914;2023-11-21T07:46:59;98299.97;;;8.15;100.00
18678;BME280;9469;51.114;13.914;2023-11-21T07:52:05;98298.06;;;8.34;100.00
18678;BME280;9469;51.114;13.914;2023-11-21T07:57:14;98305.22;;;8.47;100.00
18678;BME280;9469;51.114;13.914;2023-11-21T08:02:23;98305.50;;;8.46;100.00
18678;BME280;9469;51.114;13.914;2023-11-21T08:07:30;98299.44;;;8.32;100.00
18678;BME280;9469;51.114;13.914;2023-11-21T08:12:36;98302.97;;;8.41;100.00
18678;BME280;9469;51.114;13.914;2023-11-21T08:17:45;98310.13;;;8.40;100.00
18678;BME280;9469;51.114;13.914;2023-11-21T08:22:52;98309.75;;;8.47;100.00
18678;BME280;9469;51.114;13.914;2023-11-21T08:27:59;98312.34;;;8.20;100.00
18678;BME280;9469;51.114;13.914;2023-11-21T08:33:08;98310.94;;;8.27;100.00
18678;BME280;9469;51.114;13.914;2023-11-21T08:38:14;98316.72;;;8.29;100.00
18678;BME280;9469;51.114;13.914;2023-11-21T08:43:19;98318.63;;;8.10;100.00
18678;BME280;9469;51.114;13.914;2023-11-21T08:48:28;98321.16;;;8.02;100.00
18678;BME280;9469;51.114;13.914;2023-11-21T08:53:33;98323.38;;;8.27;100.00
18678;BME280;9469;51.114;13.914;2023-11-21T08:58:38;98332.25;;;8.17;100.00
18678;BME280;9469;51.114;13.914;2023-11-21T09:03:46;98333.97;;;8.27;100.00
18678;BME280;9469;51.114;13.914;2023-11-21T09:08:54;98337.13;;;8.42;100.00
18678;BME280;9469;51.114;13.914;2023-11-21T09:14:02;98345.56;;;8.44;100.00
18678;BME280;9469;51.114;13.914;2023-11-21T09:19:10;98349.69;;;8.37;100.00
18678;BME280;9469;51.114;13.914;2023-11-21T09:24:16;98359.97;;;8.25;100.00
18678;BME280;9469;51.114;13.914;2023-11-21T09:29:22;98355.38;;;8.44;100.00
18678;BME280;9469;51.114;13.914;2023-11-21T09:34:31;98365.81;;;8.54;100.00
18678;BME280;9469;51.114;13.914;2023-11-21T09:39:38;98371.13;;;8.22;100.00
18678;BME280;9469;51.114;13.914;2023-11-21T09:45:03;98369.75;;;7.78;100.00
18678;BME280;9469;51.114;13.914;2023-11-21T09:50:16;98397.13;;;7.55;100.00
18678;BME280;9469;51.114;13.914;2023-11-21T09:55:25;98401.84;;;7.58;100.00
18678;BME280;9469;51.114;13.914;2023-11-21T10:00:32;98407.28;;;7.48;100.00
18678;BME280;9469;51.114;13.914;2023-11-21T10:05:42;98409.00;;;7.39;100.00
18678;BME280;9469;51.114;13.914;2023-11-21T10:10:53;98421.81;;;7.32;100.00
18678;BME280;9469;51.114;13.914;2023-11-21T10:15:59;98420.72;;;7.14;100.00
18678;BME280;9469;51.114;13.914;2023-11-21T10:21:13;98417.22;;;7.38;100.00
18678;BME280;9469;51.114;13.914;2023-11-21T10:26:23;98428.91;;;7.13;100.00
18678;BME280;9469;51.114;13.914;2023-11-21T10:31:33;98444.53;;;7.33;100.00
18678;BME280;9469;51.114;13.914;2023-11-21T10:36:41;98433.31;;;7.22;100.00
18678;BME280;9469;51.114;13.914;2023-11-21T10:41:48;98444.47;;;7.38;100.00
18678;BME280;9469;51.114;13.914;2023-11-21T10:47:03;98459.63;;;7.33;100.00
18678;BME280;9469;51.114;13.914;2023-11-21T10:52:13;98459.91;;;7.31;100.00
18678;BME280;9469;51.114;13.914;2023-11-21T10:57:20;98458.63;;;7.47;100.00
18678;BME280;9469;51.114;13.914;2023-11-21T11:02:29;98455.69;;;7.49;100.00
18678;BME280;9469;51.114;13.914;2023-11-21T11:07:43;98463.19;;;7.23;100.00
18678;BME280;9469;51.114;13.914;2023-11-21T11:12:49;98475.97;;;7.16;100.00
18678;BME280;9469;51.114;13.914;2023-11-21T11:17:56;98468.75;;;7.21;100.00
18678;BME280;9469;51.114;13.914;2023-11-21T11:23:33;98476.66;;;7.03;100.00
18678;BME280;9469;51.114;13.914;2023-11-21T11:28:47;98487.25;;;7.45;100.00
18678;BME280;9469;51.114;13.914;2023-11-21T11:34:01;98492.91;;;7.15;100.00
18678;BME280;9469;51.114;13.914;2023-11-21T11:39:34;98493.72;;;6.63;100.00
18678;BME280;9469;51.114;13.914;2023-11-21T11:44:52;98498.88;;;6.49;100.00
18678;BME280;9469;51.114;13.914;2023-11-21T11:50:09;98497.34;;;6.72;100.00
18678;BME280;9469;51.114;13.914;2023-11-21T11:55:23;98505.19;;;6.82;100.00
18678;BME280;9469;51.114;13.914;2023-11-21T12:00:36;98512.22;;;6.34;100.00
18678;BME280;9469;51.114;13.914;2023-11-21T12:05:43;98515.03;;;6.72;100.00
18678;BME280;9469;51.114;13.914;2023-11-21T12:10:54;98518.97;;;6.50;100.00
18678;BME280;9469;51.114;13.914;2023-11-21T12:16:04;98520.31;;;6.14;100.00
18678;BME280;9469;51.114;13.914;2023-11-21T12:21:10;98529.19;;;6.28;100.00
18678;BME280;9469;51.114;13.914;2023-11-21T12:26:19;98537.03;;;6.96;100.00
18678;BME280;9469;51.114;13.914;2023-11-21T12:31:24;98549.78;;;6.89;100.00
18678;BME280;9469;51.114;13.914;2023-11-21T12:36:30;98548.66;;;6.37;100.00
18678;BME280;9469;51.114;13.914;2023-11-21T12:41:41;98551.47;;;6.51;100.00
18678;BME280;9469;51.114;13.914;2023-11-21T12:46:47;98565.09;;;6.29;100.00
18678;BME280;9469;51.114;13.914;2023-11-21T12:51:57;98560.75;;;6.43;100.00
18678;BME280;9469;51.114;13.914;2023-11-21T12:57:05;98567.84;;;6.14;100.00
18678;BME280;9469;51.114;13.914;2023-11-21T13:02:12;98578.97;;;6.45;100.00
18678;BME280;9469;51.114;13.914;2023-11-21T13:07:18;98596.00;;;6.29;100.00
18678;BME280;9469;51.114;13.914;2023-11-21T13:12:27;98602.06;;;5.75;100.00
18678;BME280;9469;51.114;13.914;2023-11-21T13:17:34;98601.88;;;6.21;100.00
18678;BME280;9469;51.114;13.914;2023-11-21T13:22:39;98609.47;;;5.73;100.00
18678;BME280;9469;51.114;13.914;2023-11-21T13:27:47;98618.53;;;6.16;100.00
18678;BME280;9469;51.114;13.914;2023-11-21T13:32:53;98614.47;;;5.90;100.00
18678;BME280;9469;51.114;13.914;2023-11-21T13:38:05;98620.69;;;6.04;100.00
18678;BME280;9469;51.114;13.914;2023-11-21T13:43:19;98634.34;;;6.21;100.00
18678;BME280;9469;51.114;13.914;2023-11-21T13:48:27;98636.50;;;6.14;100.00
18678;BME280;9469;51.114;13.914;2023-11-21T13:53:36;98649.59;;;5.86;100.00
18678;BME280;9469;51.114;13.914;2023-11-21T13:58:46;98651.75;;;6.27;100.00
18678;BME280;9469;51.114;13.914;2023-11-21T14:03:56;98651.53;;;5.40;100.00
18678;BME280;9469;51.114;13.914;2023-11-21T14:09:11;98666.56;;;5.49;100.00
18678;BME280;9469;51.114;13.914;2023-11-21T14:14:30;98677.69;;;5.16;100.00
18678;BME280;9469;51.114;13.914;2023-11-21T14:19:38;98686.81;;;5.69;100.00
18678;BME280;9469;51.114;13.914;2023-11-21T14:24:46;98673.41;;;5.50;100.00
18678;BME280;9469;51.114;13.914;2023-11-21T14:29:56;98696.94;;;5.27;100.00
18678;BME280;9469;51.114;13.914;2023-11-21T14:35:12;98692.59;;;5.86;100.00
18678;BME280;9469;51.114;13.914;2023-11-21T14:40:25;98696.31;;;5.85;100.00
18678;BME280;9469;51.114;13.914;2023-11-21T14:45:43;98711.59;;;5.73;100.00
18678;BME280;9469;51.114;13.914;2023-11-21T14:50:56;98711.91;;;5.61;100.00
18678;BME280;9469;51.114;13.914;2023-11-21T14:56:17;98718.44;;;5.79;100.00
18678;BME280;9469;51.114;13.914;2023-11-21T15:01:34;98730.16;;;5.33;100.00
18678;BME280;9469;51.114;13.914;2023-11-21T15:06:47;98736.19;;;5.38;100.00
18678;BME280;9469;51.114;13.914;2023-11-21T15:11:55;98734.91;;;5.36;100.00
18678;BME280;9469;51.114;13.914;2023-11-21T15:17:09;98747.53;;;5.64;100.00
18678;BME280;9469;51.114;13.914;2023-11-21T15:22:21;98744.38;;;5.62;100.00
18678;BME280;9469;51.114;13.914;2023-11-21T15:27:27;98748.09;;;5.31;100.00
18678;BME280;9469;51.114;13.914;2023-11-21T15:32:36;98757.03;;;5.60;100.00
18678;BME280;9469;51.114;13.914;2023-11-21T15:37:49;98758.88;;;5.69;100.00
18678;BME280;9469;51.114;13.914;2023-11-21T15:42:55;98767.06;;;5.53;100.00
18678;BME280;9469;51.114;13.914;2023-11-21T15:48:05;98769.16;;;5.61;100.00
18678;BME280;9469;51.114;13.914;2023-11-21T15:53:11;98789.25;;;5.27;100.00
18678;BME280;9469;51.114;13.914;2023-11-21T15:58:24;98802.13;;;5.08;100.00
18678;BME280;9469;51.114;13.914;2023-11-21T16:03:34;98799.78;;;5.57;100.00
18678;BME280;9469;51.114;13.914;2023-11-21T16:13:56;98812.69;;;5.38;100.00
18678;BME280;9469;51.114;13.914;2023-11-21T16:19:04;98812.41;;;4.94;100.00
18678;BME280;9469;51.114;13.914;2023-11-21T16:24:12;98823.88;;;4.58;100.00
18678;BME280;9469;51.114;13.914;2023-11-21T16:29:25;98836.00;;;4.59;100.00
18678;BME280;9469;51.114;13.914;2023-11-21T16:34:35;98846.38;;;4.81;100.00
18678;BME280;9469;51.114;13.914;2023-11-21T16:39:48;98853.91;;;4.57;100.00
18678;BME280;9469;51.114;13.914;2023-11-21T16:44:54;98844.00;;;4.22;100.00
18678;BME280;9469;51.114;13.914;2023-11-21T16:50:03;98859.59;;;4.34;100.00
18678;BME280;9469;51.114;13.914;2023-11-21T16:55:11;98872.75;;;4.29;100.00
18678;BME280;9469;51.114;13.914;2023-11-21T17:00:21;98871.22;;;4.38;100.00
18678;BME280;9469;51.114;13.914;2023-11-21T17:05:31;98877.53;;;4.00;100.00
18678;BME280;9469;51.114;13.914;2023-11-21T17:10:39;98898.72;;;3.79;100.00
18678;BME280;9469;51.114;13.914;2023-11-21T17:15:47;98904.94;;;3.68;100.00
18678;BME280;9469;51.114;13.914;2023-11-21T17:20:55;98906.97;;;3.92;100.00
18678;BME280;9469;51.114;13.914;2023-11-21T17:26:01;98919.13;;;3.98;100.00
18678;BME280;9469;51.114;13.914;2023-11-21T17:31:07;98930.38;;;3.89;100.00
18678;BME280;9469;51.114;13.914;2023-11-21T17:36:16;98929.28;;;3.85;100.00
18678;BME280;9469;51.114;13.914;2023-11-21T17:41:25;98934.47;;;4.06;100.00
18678;BME280;9469;51.114;13.914;2023-11-21T17:46:31;98948.81;;;3.89;100.00
18678;BME280;9469;51.114;13.914;2023-11-21T17:51:44;98955.31;;;3.54;100.00
18678;BME280;9469;51.114;13.914;2023-11-21T17:56:49;98952.53;;;3.39;100.00
18678;BME280;9469;51.114;13.914;2023-11-21T18:01:55;98970.59;;;3.57;100.00
18678;BME280;9469;51.114;13.914;2023-11-21T18:07:04;98973.28;;;3.36;100.00
18678;BME280;9469;51.114;13.914;2023-11-21T18:12:11;98975.97;;;3.41;100.00
18678;BME280;9469;51.114;13.914;2023-11-21T18:17:16;98977.25;;;3.65;100.00
18678;BME280;9469;51.114;13.914;2023-11-21T18:22:25;98981.28;;;3.73;100.00
18678;BME280;9469;51.114;13.914;2023-11-21T18:27:30;98986.78;;;3.44;100.00
18678;BME280;9469;51.114;13.914;2023-11-21T18:32:35;98992.13;;;3.28;100.00
18678;BME280;9469;51.114;13.914;2023-11-21T18:37:45;99002.94;;;3.80;100.00
18678;BME280;9469;51.114;13.914;2023-11-21T18:42:50;99016.38;;;3.56;100.00
18678;BME280;9469;51.114;13.914;2023-11-21T18:47:56;99029.28;;;3.85;100.00
18678;BME280;9469;51.114;13.914;2023-11-21T18:53:04;99046.31;;;3.55;100.00
18678;BME280;9469;51.114;13.914;2023-11-21T18:58:11;99041.66;;;3.84;100.00
18678;BME280;9469;51.114;13.914;2023-11-21T19:03:19;99056.25;;;3.27;100.00
18678;BME280;9469;51.114;13.914;2023-11-21T19:08:27;99050.56;;;3.56;100.00
18678;BME280;9469;51.114;13.914;2023-11-21T19:13:35;99052.75;;;3.43;100.00
18678;BME280;9469;51.114;13.914;2023-11-21T19:18:40;99063.03;;;3.44;100.00
18678;BME280;9469;51.114;13.914;2023-11-21T19:23:53;99068.66;;;3.31;100.00
18678;BME280;9469;51.114;13.914;2023-11-21T19:28:58;99073.00;;;3.42;100.00
18678;BME280;9469;51.114;13.914;2023-11-21T19:34:06;99081.06;;;3.36;100.00
18678;BME280;9469;51.114;13.914;2023-11-21T19:39:14;99088.25;;;3.40;100.00
18678;BME280;9469;51.114;13.914;2023-11-21T19:44:20;99100.91;;;3.43;100.00
18678;BME280;9469;51.114;13.914;2023-11-21T19:49:25;99107.25;;;3.47;100.00
18678;BME280;9469;51.114;13.914;2023-11-21T19:54:33;99124.53;;;3.22;100.00
18678;BME280;9469;51.114;13.914;2023-11-21T19:59:42;99118.97;;;3.18;100.00
18678;BME280;9469;51.114;13.914;2023-11-21T20:04:50;99150.16;;;3.31;100.00
18678;BME280;9469;51.114;13.914;2023-11-21T20:10:03;99156.84;;;3.39;100.00
18678;BME280;9469;51.114;13.914;2023-11-21T20:15:10;99153.47;;;2.88;100.00
18678;BME280;9469;51.114;13.914;2023-11-21T20:20:15;99162.00;;;2.96;100.00
18678;BME280;9469;51.114;13.914;2023-11-21T20:25:27;99165.81;;;3.05;100.00
18678;BME280;9469;51.114;13.914;2023-11-21T20:30:32;99177.75;;;3.12;100.00
18678;BME280;9469;51.114;13.914;2023-11-21T20:35:38;99180.84;;;2.76;100.00
18678;BME280;9469;51.114;13.914;2023-11-21T20:40:49;99194.97;;;2.86;100.00
18678;BME280;9469;51.114;13.914;2023-11-21T20:45:58;99216.19;;;2.85;100.00
18678;BME280;9469;51.114;13.914;2023-11-21T20:51:04;99214.22;;;2.75;100.00
18678;BME280;9469;51.114;13.914;2023-11-21T20:56:12;99214.53;;;2.79;100.00
18678;BME280;9469;51.114;13.914;2023-11-21T21:01:21;99217.06;;;2.57;100.00
18678;BME280;9469;51.114;13.914;2023-11-21T21:06:26;99222.00;;;2.70;100.00
18678;BME280;9469;51.114;13.914;2023-11-21T21:11:36;99219.13;;;2.55;100.00
18678;BME280;9469;51.114;13.914;2023-11-21T21:16:41;99232.16;;;2.50;100.00
18678;BME280;9469;51.114;13.914;2023-11-21T21:21:47;99244.03;;;2.69;100.00
18678;BME280;9469;51.114;13.914;2023-11-21T21:26:56;99243.66;;;2.33;100.00
18678;BME280;9469;51.114;13.914;2023-11-21T21:32:01;99244.69;;;2.60;100.00
18678;BME280;9469;51.114;13.914;2023-11-21T21:37:08;99252.69;;;2.25;100.00
18678;BME280;9469;51.114;13.914;2023-11-21T21:42:17;99258.91;;;1.96;100.00
18678;BME280;9469;51.114;13.914;2023-11-21T21:47:24;99268.94;;;2.67;100.00
18678;BME280;9469;51.114;13.914;2023-11-21T21:52:36;99276.25;;;2.48;100.00
18678;BME280;9469;51.114;13.914;2023-11-21T21:57:46;99285.31;;;2.17;100.00
18678;BME280;9469;51.114;13.914;2023-11-21T22:02:51;99293.53;;;2.33;100.00
18678;BME280;9469;51.114;13.914;2023-11-21T22:07:58;99296.16;;;2.21;100.00
18678;BME280;9469;51.114;13.914;2023-11-21T22:13:06;99303.19;;;2.44;100.00
18678;BME280;9469;51.114;13.914;2023-11-21T22:18:11;99302.88;;;2.29;100.00
18678;BME280;9469;51.114;13.914;2023-11-21T22:23:18;99299.81;;;2.08;100.00
18678;BME280;9469;51.114;13.914;2023-11-21T22:28:27;99304.09;;;2.38;100.00
18678;BME280;9469;51.114;13.914;2023-11-21T22:33:35;99302.97;;;2.34;100.00
18678;BME280;9469;51.114;13.914;2023-11-21T22:38:40;99294.72;;;2.53;100.00
18678;BME280;9469;51.114;13.914;2023-11-21T22:43:50;99289.31;;;2.20;100.00
18678;BME280;9469;51.114;13.914;2023-11-21T22:48:58;99305.03;;;2.32;100.00
18678;BME280;9469;51.114;13.914;2023-11-21T22:54:04;99316.47;;;2.37;100.00
18678;BME280;9469;51.114;13.914;2023-11-21T22:59:12;99314.19;;;2.17;100.00
18678;BME280;9469;51.114;13.914;2023-11-21T23:04:18;99308.63;;;2.14;100.00
18678;BME280;9469;51.114;13.914;2023-11-21T23:09:24;99329.75;;;1.96;100.00
18678;BME280;9469;51.114;13.914;2023-11-21T23:14:34;99324.38;;;2.14;100.00
18678;BME280;9469;51.114;13.914;2023-11-21T23:19:39;99324.34;;;2.37;100.00
18678;BME280;9469;51.114;13.914;2023-11-21T23:24:53;99333.28;;;1.78;100.00
18678;BME280;9469;51.114;13.914;2023-11-21T23:30:01;99335.53;;;1.52;100.00
18678;BME280;9469;51.114;13.914;2023-11-21T23:35:09;99325.94;;;1.34;100.00
18678;BME280;9469;51.114;13.914;2023-11-21T23:40:17;99351.16;;;1.47;100.00
18678;BME280;9469;51.114;13.914;2023-11-21T23:45:25;99353.06;;;1.39;100.00
18678;BME280;9469;51.114;13.914;2023-11-21T23:50:31;99353.94;;;1.22;100.00
18678;BME280;9469;51.114;13.914;2023-11-21T23:55:38;99364.38;;;1.10;100.00
